createdAt,value
2018-02-05T00:00:00.482Z,100319.96
2018-02-05T00:02:29.264Z,100319.44
2018-02-05T00:04:57.144Z,100317.30
2018-02-05T00:07:25.272Z,100309.36
2018-02-05T00:09:53.096Z,100299.02
2018-02-05T00:12:20.892Z,100302.37
2018-02-05T00:14:48.748Z,100304.38
2018-02-05T00:17:16.524Z,100308.38
2018-02-05T00:19:44.275Z,100305.80
2018-02-05T00:22:15.238Z,100312.63
2018-02-05T00:24:43.736Z,100315.52
2018-02-05T00:27:11.632Z,100316.20
2018-02-05T00:29:39.379Z,100321.25
2018-02-05T00:32:07.217Z,100325.09
2018-02-05T00:34:34.977Z,100328.73
2018-02-05T00:37:02.862Z,100328.64
2018-02-05T00:39:30.691Z,100331.05
2018-02-05T00:41:58.473Z,100331.77
2018-02-05T00:44:29.395Z,100326.43
2018-02-05T00:46:57.101Z,100329.28
2018-02-05T00:49:24.868Z,100322.76
2018-02-05T00:51:52.862Z,100327.99
2018-02-05T00:54:20.593Z,100332.09
2018-02-05T00:56:48.471Z,100321.95
2018-02-05T00:59:16.627Z,100326.05
2018-02-05T01:01:44.215Z,100321.16
2018-02-05T01:04:11.791Z,100326.14
2018-02-05T01:06:39.400Z,100320.12
2018-02-05T01:09:07.108Z,100322.05
2018-02-05T01:11:34.659Z,100324.23
2018-02-05T01:14:02.266Z,100325.57
2018-02-05T01:16:30.084Z,100328.67
2018-02-05T01:18:57.639Z,100326.02
2018-02-05T01:21:25.214Z,100321.89
2018-02-05T01:23:53.109Z,100326.67
2018-02-05T01:26:20.819Z,100326.66
2018-02-05T01:28:48.727Z,100322.97
2018-02-05T01:31:16.527Z,100324.48
2018-02-05T01:33:44.190Z,100326.25
2018-02-05T01:36:12.459Z,100327.41
2018-02-05T01:38:40.408Z,100325.95
2018-02-05T01:41:08.013Z,100325.11
2018-02-05T01:43:35.657Z,100322.34
2018-02-05T01:46:03.265Z,100324.11
2018-02-05T01:48:30.998Z,100320.80
2018-02-05T01:50:58.720Z,100320.30
2018-02-05T01:53:26.734Z,100314.71
2018-02-05T01:55:54.739Z,100316.77
2018-02-05T01:58:22.338Z,100318.34
2018-02-05T02:00:50.028Z,100324.81
2018-02-05T02:03:17.576Z,100317.26
2018-02-05T02:05:45.222Z,100315.77
2018-02-05T02:08:12.893Z,100317.07
2018-02-05T02:10:42.118Z,100316.86
2018-02-05T02:13:09.777Z,100311.70
2018-02-05T02:15:37.417Z,100314.27
2018-02-05T02:18:05.031Z,100306.56
2018-02-05T02:20:32.807Z,100310.60
2018-02-05T02:23:00.482Z,100316.34
2018-02-05T02:25:28.170Z,100318.94
2018-02-05T02:27:55.861Z,100317.48
2018-02-05T02:30:24.642Z,100318.72
2018-02-05T02:32:52.256Z,100325.00
2018-02-05T02:35:19.958Z,100329.86
2018-02-05T02:37:47.625Z,100332.70
2018-02-05T02:40:15.390Z,100331.91
2018-02-05T02:42:42.998Z,100333.58
2018-02-05T02:45:10.793Z,100333.55
2018-02-05T02:47:38.599Z,100333.27
2018-02-05T02:50:06.378Z,100339.63
2018-02-05T02:52:34.121Z,100347.98
2018-02-05T02:55:01.856Z,100349.51
2018-02-05T02:57:29.717Z,100349.60
2018-02-05T02:59:57.722Z,100349.16
2018-02-05T03:02:25.525Z,100356.39
2018-02-05T03:04:53.665Z,100348.52
2018-02-05T03:07:21.460Z,100352.02
2018-02-05T03:09:49.170Z,100347.62
2018-02-05T03:12:16.741Z,100345.27
2018-02-05T03:14:44.366Z,100352.91
2018-02-05T03:17:11.930Z,100350.34
2018-02-05T03:19:39.503Z,100346.61
2018-02-05T03:22:07.057Z,100356.92
2018-02-05T03:24:35.041Z,100347.62
2018-02-05T03:27:02.969Z,100345.91
2018-02-05T03:29:31.083Z,100351.80
2018-02-05T03:31:58.610Z,100350.90
2018-02-05T03:34:26.171Z,100351.33
2018-02-05T03:36:54.753Z,100357.06
2018-02-05T03:39:22.451Z,100351.55
2018-02-05T03:41:49.974Z,100353.32
2018-02-05T03:44:17.512Z,100353.13
2018-02-05T03:46:45.137Z,100349.63
2018-02-05T03:49:12.646Z,100347.42
2018-02-05T03:51:40.224Z,100345.25
2018-02-05T03:54:07.897Z,100348.86
2018-02-05T03:56:35.408Z,100354.70
2018-02-05T03:59:02.981Z,100353.77
2018-02-05T04:01:30.497Z,100362.09
2018-02-05T04:03:58.046Z,100361.33
2018-02-05T04:06:25.566Z,100364.58
2018-02-05T04:08:53.195Z,100362.02
2018-02-05T04:11:20.707Z,100375.27
2018-02-05T04:13:48.204Z,100370.55
2018-02-05T04:16:15.785Z,100370.66
2018-02-05T04:18:43.301Z,100379.09
2018-02-05T04:21:10.831Z,100374.77
2018-02-05T04:23:38.389Z,100380.77
2018-02-05T04:26:05.910Z,100377.59
2018-02-05T04:28:33.432Z,100375.90
2018-02-05T04:31:00.981Z,100385.01
2018-02-05T04:33:28.537Z,100381.23
2018-02-05T04:35:56.049Z,100381.34
2018-02-05T04:38:24.505Z,100382.14
2018-02-05T04:40:52.375Z,100381.38
2018-02-05T04:43:19.903Z,100383.50
2018-02-05T04:45:47.440Z,100384.02
2018-02-05T04:48:15.293Z,100382.12
2018-02-05T04:50:42.839Z,100386.96
2018-02-05T04:53:10.349Z,100387.70
2018-02-05T04:55:37.862Z,100383.75
2018-02-05T04:58:05.412Z,100383.00
2018-02-05T05:00:33.003Z,100390.09
2018-02-05T05:03:00.582Z,100387.39
2018-02-05T05:05:28.079Z,100381.03
2018-02-05T05:07:55.652Z,100390.03
2018-02-05T05:10:23.178Z,100381.86
2018-02-05T05:12:50.699Z,100388.23
2018-02-05T05:15:18.383Z,100387.97
2018-02-05T05:17:46.874Z,100389.55
2018-02-05T05:20:14.399Z,100395.59
2018-02-05T05:22:41.921Z,100395.19
2018-02-05T05:25:09.739Z,100405.71
2018-02-05T05:27:37.297Z,100406.63
2018-02-05T05:30:04.814Z,100405.45
2018-02-05T05:32:32.331Z,100403.88
2018-02-05T05:34:59.886Z,100398.80
2018-02-05T05:37:27.434Z,100407.94
2018-02-05T05:39:54.971Z,100413.16
2018-02-05T05:42:22.503Z,100405.24
2018-02-05T05:44:50.062Z,100417.94
2018-02-05T05:47:17.582Z,100410.17
2018-02-05T05:49:45.116Z,100411.80
2018-02-05T05:52:12.624Z,100419.79
2018-02-05T05:54:40.173Z,100420.88
2018-02-05T05:57:07.764Z,100419.23
2018-02-05T05:59:35.325Z,100419.66
2018-02-05T06:02:02.842Z,100419.50
2018-02-05T06:04:30.374Z,100418.19
2018-02-05T06:06:57.931Z,100426.50
2018-02-05T06:09:25.449Z,100421.64
2018-02-05T06:11:53.297Z,100418.27
2018-02-05T06:14:20.819Z,100425.78
2018-02-05T06:16:48.375Z,100423.11
2018-02-05T06:19:15.880Z,100416.97
2018-02-05T06:21:43.395Z,100425.15
2018-02-05T06:24:10.960Z,100427.18
2018-02-05T06:26:38.459Z,100430.73
2018-02-05T06:29:05.989Z,100429.28
2018-02-05T06:31:33.554Z,100438.82
2018-02-05T06:34:01.073Z,100441.60
2018-02-05T06:36:28.602Z,100437.33
2018-02-05T06:38:56.154Z,100434.08
2018-02-05T06:41:23.686Z,100440.04
2018-02-05T06:43:51.266Z,100441.56
2018-02-05T06:46:18.767Z,100444.67
2018-02-05T06:48:46.280Z,100442.23
2018-02-05T06:51:25.910Z,100449.28
2018-02-05T06:54:05.148Z,100456.79
2018-02-05T06:56:32.722Z,100456.58
2018-02-05T06:59:00.226Z,100462.97
2018-02-05T07:01:27.742Z,100462.52
2018-02-05T07:03:55.285Z,100463.33
2018-02-05T07:06:22.826Z,100467.85
2018-02-05T07:08:50.362Z,100459.70
2018-02-05T07:11:17.924Z,100466.39
2018-02-05T07:13:45.471Z,100465.36
2018-02-05T07:16:12.977Z,100468.39
2018-02-05T07:18:40.532Z,100466.09
2018-02-05T07:21:08.036Z,100470.13
2018-02-05T07:23:35.552Z,100471.66
2018-02-05T07:26:03.096Z,100466.37
2018-02-05T07:28:30.610Z,100473.31
2018-02-05T07:30:58.165Z,100469.70
2018-02-05T07:33:25.667Z,100472.93
2018-02-05T07:35:53.216Z,100470.48
2018-02-05T07:38:20.828Z,100470.77
2018-02-05T07:40:48.344Z,100472.91
2018-02-05T07:43:15.905Z,100477.20
2018-02-05T07:45:43.460Z,100476.56
2018-02-05T07:48:11.009Z,100481.42
2018-02-05T07:50:38.511Z,100475.00
2018-02-05T07:53:06.074Z,100482.13
2018-02-05T07:55:33.603Z,100470.91
2018-02-05T07:58:01.103Z,100475.09
2018-02-05T08:00:28.664Z,100476.86
2018-02-05T08:02:56.213Z,100472.50
2018-02-05T08:05:23.740Z,100468.08
2018-02-05T08:07:51.320Z,100469.83
2018-02-05T08:10:18.864Z,100473.97
2018-02-05T08:12:46.430Z,100469.20
2018-02-05T08:15:13.941Z,100468.17
2018-02-05T08:17:41.448Z,100476.47
2018-02-05T08:20:08.997Z,100481.17
2018-02-05T08:22:36.570Z,100480.13
2018-02-05T08:25:04.088Z,100480.02
2018-02-05T08:27:31.681Z,100480.26
2018-02-05T08:29:59.233Z,100481.53
2018-02-05T08:32:26.750Z,100479.77
2018-02-05T08:34:54.304Z,100486.98
2018-02-05T08:37:21.839Z,100484.78
2018-02-05T08:39:49.476Z,100484.33
2018-02-05T08:42:17.003Z,100488.78
2018-02-05T08:44:44.643Z,100478.43
2018-02-05T08:47:12.287Z,100491.41
2018-02-05T08:49:39.970Z,100486.31
2018-02-05T08:52:07.560Z,100475.67
2018-02-05T08:54:35.477Z,100484.16
2018-02-05T08:57:03.029Z,100474.63
2018-02-05T08:59:30.630Z,100471.00
2018-02-05T09:01:58.193Z,100473.53
2018-02-05T09:04:25.817Z,100468.56
2018-02-05T09:06:54.112Z,100466.41
2018-02-05T09:09:22.054Z,100466.69
2018-02-05T09:11:50.174Z,100467.37
2018-02-05T09:14:18.371Z,100465.04
2018-02-05T09:16:45.941Z,100459.25
2018-02-05T09:19:13.832Z,100465.70
2018-02-05T09:21:41.934Z,100455.41
2018-02-05T09:24:09.644Z,100452.47
2018-02-05T09:26:37.633Z,100454.50
2018-02-05T09:29:05.283Z,100447.58
2018-02-05T09:31:32.976Z,100449.98
2018-02-05T09:34:00.608Z,100451.27
2018-02-05T09:36:29.535Z,100457.93
2018-02-05T09:38:57.139Z,100456.70
2018-02-05T09:41:25.121Z,100458.34
2018-02-05T09:43:54.095Z,100457.15
2018-02-05T09:46:21.894Z,100456.33
2018-02-05T09:48:49.582Z,100456.20
2018-02-05T09:51:17.397Z,100456.84
2018-02-05T09:53:45.172Z,100459.56
2018-02-05T09:56:12.941Z,100456.04
2018-02-05T09:58:40.627Z,100453.66
2018-02-05T10:01:08.380Z,100458.50
2018-02-05T10:03:36.474Z,100454.65
2018-02-05T10:06:04.576Z,100457.33
2018-02-05T10:08:32.345Z,100455.98
2018-02-05T10:11:00.891Z,100445.23
2018-02-05T10:13:28.634Z,100446.43
2018-02-05T10:15:56.488Z,100448.52
2018-02-05T10:18:25.055Z,100449.68
2018-02-05T10:20:52.877Z,100444.24
2018-02-05T10:23:20.552Z,100447.61
2018-02-05T10:25:48.075Z,100448.86
2018-02-05T10:28:15.624Z,100444.98
2018-02-05T10:30:43.151Z,100447.75
2018-02-05T10:33:10.770Z,100443.39
2018-02-05T10:35:38.380Z,100435.53
2018-02-05T10:38:05.916Z,100431.55
2018-02-05T10:40:33.742Z,100433.34
2018-02-05T10:43:01.558Z,100434.25
2018-02-05T10:45:29.259Z,100429.48
2018-02-05T10:47:56.912Z,100428.70
2018-02-05T10:50:24.573Z,100428.30
2018-02-05T10:52:52.299Z,100426.48
2018-02-05T10:55:19.853Z,100423.68
2018-02-05T10:57:47.371Z,100419.67
2018-02-05T11:00:14.946Z,100412.20
2018-02-05T11:02:42.496Z,100411.38
2018-02-05T11:05:10.071Z,100402.49
2018-02-05T11:07:37.584Z,100400.38
2018-02-05T11:10:05.136Z,100400.24
2018-02-05T11:12:32.650Z,100399.95
2018-02-05T11:15:00.188Z,100394.94
2018-02-05T11:17:27.737Z,100394.94
2018-02-05T11:19:55.631Z,100397.34
2018-02-05T11:22:23.518Z,100390.64
2018-02-05T11:24:51.526Z,100390.69
2018-02-05T11:27:19.129Z,100387.37
2018-02-05T11:29:47.184Z,100392.41
2018-02-05T11:32:16.074Z,100383.94
2018-02-05T11:34:44.185Z,100387.42
2018-02-05T11:37:12.851Z,100385.34
2018-02-05T11:39:40.528Z,100387.84
2018-02-05T11:42:08.225Z,100382.84
2018-02-05T11:44:35.770Z,100375.89
2018-02-05T11:47:03.531Z,100368.27
2018-02-05T11:49:31.126Z,100369.86
2018-02-05T11:51:58.675Z,100374.58
2018-02-05T11:54:26.229Z,100369.88
2018-02-05T11:56:53.786Z,100369.84
2018-02-05T11:59:21.326Z,100361.27
2018-02-05T12:01:48.876Z,100360.84
2018-02-05T12:04:16.412Z,100367.02
2018-02-05T12:06:43.973Z,100364.91
2018-02-05T12:09:11.527Z,100359.42
2018-02-05T12:11:39.089Z,100362.78
2018-02-05T12:14:06.680Z,100358.61
2018-02-05T12:16:34.292Z,100363.75
2018-02-05T12:19:01.859Z,100355.33
2018-02-05T12:21:29.381Z,100359.03
2018-02-05T12:23:56.983Z,100358.84
2018-02-05T12:26:25.335Z,100359.86
2018-02-05T12:28:53.036Z,100354.31
2018-02-05T12:31:20.574Z,100345.89
2018-02-05T12:33:48.111Z,100350.06
2018-02-05T12:36:15.660Z,100343.80
2018-02-05T12:38:43.257Z,100336.03
2018-02-05T12:41:10.813Z,100333.26
2018-02-05T12:43:39.512Z,100334.84
2018-02-05T12:46:07.244Z,100329.73
2018-02-05T12:48:35.579Z,100327.51
2018-02-05T12:51:03.153Z,100318.97
2018-02-05T12:53:30.930Z,100321.85
2018-02-05T12:55:58.814Z,100320.52
2018-02-05T12:58:26.331Z,100319.83
2018-02-05T13:00:54.358Z,100321.67
2018-02-05T13:03:39.523Z,100318.30
2018-02-05T13:06:11.646Z,100313.18
2018-02-05T13:08:39.247Z,100310.83
2018-02-05T13:11:06.801Z,100304.67
2018-02-05T13:13:34.303Z,100298.33
2018-02-05T13:16:01.854Z,100300.81
2018-02-05T13:18:29.408Z,100295.32
2018-02-05T13:20:57.322Z,100292.80
2018-02-05T13:23:25.183Z,100293.78
2018-02-05T13:25:52.744Z,100289.00
2018-02-05T13:28:20.282Z,100291.64
2018-02-05T13:30:47.820Z,100286.36
2018-02-05T13:33:15.366Z,100278.31
2018-02-05T13:35:42.935Z,100274.79
2018-02-05T13:38:10.471Z,100269.78
2018-02-05T13:40:38.053Z,100269.73
2018-02-05T13:43:05.597Z,100268.38
2018-02-05T13:45:33.138Z,100270.89
2018-02-05T13:48:00.696Z,100271.81
2018-02-05T13:50:28.218Z,100265.34
2018-02-05T13:52:55.863Z,100273.72
2018-02-05T13:55:23.409Z,100264.48
2018-02-05T13:57:51.088Z,100257.73
2018-02-05T14:00:18.621Z,100256.08
2018-02-05T14:02:46.157Z,100257.43
2018-02-05T14:05:13.746Z,100253.29
2018-02-05T14:07:41.263Z,100247.89
2018-02-05T14:10:08.808Z,100247.55
2018-02-05T14:12:36.359Z,100242.06
2018-02-05T14:15:03.925Z,100238.29
2018-02-05T14:17:31.460Z,100239.30
2018-02-05T14:19:59.079Z,100232.12
2018-02-05T14:22:26.626Z,100232.73
2018-02-05T14:24:55.380Z,100231.45
2018-02-05T14:27:22.928Z,100227.45
2018-02-05T14:29:50.513Z,100230.19
2018-02-05T14:32:18.081Z,100232.88
2018-02-05T14:34:45.607Z,100229.03
2018-02-05T14:37:13.130Z,100230.91
2018-02-05T14:39:40.676Z,100226.14
2018-02-05T14:42:08.229Z,100231.48
2018-02-05T14:44:35.742Z,100232.92
2018-02-05T14:47:03.298Z,100230.09
2018-02-05T14:49:30.838Z,100220.11
2018-02-05T14:51:58.369Z,100224.89
2018-02-05T14:54:25.943Z,100217.77
2018-02-05T14:56:53.451Z,100213.70
2018-02-05T14:59:20.967Z,100211.69
2018-02-05T15:01:48.524Z,100212.55
2018-02-05T15:04:16.065Z,100213.45
2018-02-05T15:06:43.605Z,100204.02
2018-02-05T15:09:11.149Z,100202.58
2018-02-05T15:11:38.752Z,100200.13
2018-02-05T15:14:06.293Z,100196.59
2018-02-05T15:16:33.810Z,100195.36
2018-02-05T15:19:01.355Z,100193.77
2018-02-05T15:21:28.863Z,100193.77
2018-02-05T15:23:56.399Z,100191.30
2018-02-05T15:26:23.898Z,100188.98
2018-02-05T15:28:51.474Z,100189.95
2018-02-05T15:31:19.095Z,100184.95
2018-02-05T15:33:46.828Z,100180.84
2018-02-05T15:36:14.347Z,100179.80
2018-02-05T15:38:41.889Z,100181.42
2018-02-05T15:41:09.475Z,100185.80
2018-02-05T15:43:37.034Z,100181.50
2018-02-05T15:46:04.587Z,100180.33
2018-02-05T15:48:32.092Z,100177.45
2018-02-05T15:50:59.638Z,100178.95
2018-02-05T15:53:27.153Z,100184.52
2018-02-05T15:55:55.241Z,100180.89
2018-02-05T15:58:22.763Z,100184.13
2018-02-05T16:00:50.320Z,100180.66
2018-02-05T16:03:17.847Z,100172.80
2018-02-05T16:05:45.455Z,100171.27
2018-02-05T16:08:13.015Z,100163.61
2018-02-05T16:10:40.519Z,100168.23
2018-02-05T16:13:08.066Z,100168.09
2018-02-05T16:15:35.600Z,100169.86
2018-02-05T16:18:03.148Z,100167.32
2018-02-05T16:20:30.661Z,100173.75
2018-02-05T16:23:01.359Z,100177.22
2018-02-05T16:25:28.960Z,100173.16
2018-02-05T16:27:56.503Z,100175.19
2018-02-05T16:30:24.006Z,100169.84
2018-02-05T16:32:51.553Z,100163.69
2018-02-05T16:35:19.066Z,100164.70
2018-02-05T16:37:46.603Z,100160.66
2018-02-05T16:40:14.108Z,100153.42
2018-02-05T16:42:41.893Z,100149.17
2018-02-05T16:45:09.575Z,100152.91
2018-02-05T16:47:37.149Z,100158.06
2018-02-05T16:50:04.825Z,100155.51
2018-02-05T16:52:33.104Z,100152.06
2018-02-05T16:55:00.824Z,100146.57
2018-02-05T16:57:28.619Z,100147.23
2018-02-05T16:59:56.506Z,100151.19
2018-02-05T17:02:24.404Z,100152.55
2018-02-05T17:04:52.126Z,100152.05
2018-02-05T17:07:19.717Z,100149.10
2018-02-05T17:09:47.441Z,100155.17
2018-02-05T17:12:14.952Z,100146.97
2018-02-05T17:14:43.060Z,100147.30
2018-02-05T17:17:12.065Z,100145.27
2018-02-05T17:19:41.664Z,100150.25
2018-02-05T17:22:13.875Z,100152.55
2018-02-05T17:24:41.658Z,100153.31
2018-02-05T17:27:09.213Z,100159.39
2018-02-05T17:29:37.859Z,100156.69
2018-02-05T17:50:19.883Z,100145.80
2018-02-05T17:52:47.738Z,100145.87
2018-02-05T17:55:15.560Z,100147.03
2018-02-05T17:57:43.456Z,100140.55
2018-02-05T18:00:10.979Z,100138.08
2018-02-05T18:02:38.900Z,100129.64
2018-02-05T18:05:06.686Z,100124.91
2018-02-05T18:07:35.090Z,100127.52
2018-02-05T18:10:02.613Z,100129.05
2018-02-05T18:12:31.307Z,100129.48
2018-02-05T18:14:59.285Z,100127.12
2018-02-05T18:17:27.191Z,100125.67
2018-02-05T18:19:54.952Z,100130.64
2018-02-05T18:22:22.557Z,100131.25
2018-02-05T18:24:50.090Z,100128.37
2018-02-05T18:27:17.801Z,100134.63
2018-02-05T18:29:45.931Z,100133.77
2018-02-05T18:32:13.508Z,100132.58
2018-02-05T18:34:41.938Z,100133.44
2018-02-05T18:37:09.675Z,100136.64
2018-02-05T18:39:37.598Z,100135.22
2018-02-05T18:42:05.171Z,100123.13
2018-02-05T18:44:32.749Z,100120.95
2018-02-05T18:47:00.956Z,100125.69
2018-02-05T18:49:28.815Z,100120.55
2018-02-05T18:51:56.561Z,100124.67
2018-02-05T18:54:24.116Z,100125.03
2018-02-05T18:56:51.689Z,100118.95
2018-02-05T18:59:19.200Z,100128.02
2018-02-05T19:01:58.617Z,100119.67
2018-02-05T19:04:26.165Z,100110.97
2018-02-05T19:06:53.715Z,100112.93
2018-02-05T19:09:21.225Z,100107.28
2018-02-05T19:11:48.752Z,100110.55
2018-02-05T19:14:16.314Z,100105.41
2018-02-05T19:16:43.847Z,100102.38
2018-02-05T19:19:11.417Z,100106.17
2018-02-05T19:21:38.936Z,100102.58
2018-02-05T19:24:06.481Z,100103.79
2018-02-05T19:26:34.125Z,100099.66
2018-02-05T19:29:01.699Z,100108.09
2018-02-05T19:31:29.299Z,100102.25
2018-02-05T19:33:56.861Z,100099.98
2018-02-05T19:36:25.405Z,100093.27
2018-02-05T19:38:52.933Z,100093.34
2018-02-05T19:41:20.491Z,100098.59
2018-02-05T19:43:48.045Z,100100.61
2018-02-05T19:46:15.702Z,100098.70
2018-02-05T19:48:43.210Z,100087.09
2018-02-05T19:51:10.748Z,100087.91
2018-02-05T19:53:38.321Z,100083.36
2018-02-05T19:56:05.845Z,100079.73
2018-02-05T19:58:33.751Z,100087.67
2018-02-05T20:01:01.299Z,100090.77
2018-02-05T20:03:28.855Z,100084.63
2018-02-05T20:05:56.434Z,100086.56
2018-02-05T20:08:23.990Z,100094.02
2018-02-05T20:10:51.539Z,100083.28
2018-02-05T20:13:19.386Z,100082.70
2018-02-05T20:15:47.132Z,100074.80
2018-02-05T20:18:14.903Z,100078.08
2018-02-05T20:20:42.868Z,100077.34
2018-02-05T20:23:10.413Z,100076.81
2018-02-05T20:25:38.187Z,100067.73
2018-02-05T20:28:05.746Z,100071.77
2018-02-05T20:30:33.251Z,100073.28
2018-02-05T20:33:00.843Z,100074.87
2018-02-05T20:35:28.370Z,100081.22
2018-02-05T20:37:56.076Z,100070.67
2018-02-05T20:40:23.754Z,100079.02
2018-02-05T20:42:51.293Z,100082.48
2018-02-05T20:45:19.137Z,100086.88
2018-02-05T20:47:46.678Z,100082.48
2018-02-05T20:50:14.291Z,100080.70
2018-02-05T20:52:41.828Z,100072.42
2018-02-05T20:55:09.360Z,100078.16
2018-02-05T20:57:37.944Z,100079.34
2018-02-05T21:00:06.801Z,100074.55
2018-02-05T21:02:34.346Z,100067.37
2018-02-05T21:05:01.858Z,100067.28
2018-02-05T21:07:29.420Z,100070.33
2018-02-05T21:09:56.949Z,100063.05
2018-02-05T21:12:25.482Z,100063.97
2018-02-05T21:14:53.001Z,100062.55
2018-02-05T21:17:20.539Z,100054.44
2018-02-05T21:19:48.067Z,100055.39
2018-02-05T21:22:15.674Z,100056.31
2018-02-05T21:24:43.201Z,100052.17
2018-02-05T21:27:10.748Z,100050.91
2018-02-05T21:29:38.264Z,100052.75
2018-02-05T21:32:05.822Z,100052.26
2018-02-05T21:34:33.379Z,100048.05
2018-02-05T21:37:01.942Z,100043.93
2018-02-05T21:39:29.465Z,100043.51
2018-02-05T21:41:57.004Z,100049.30
2018-02-05T21:44:25.443Z,100042.16
2018-02-05T21:46:52.980Z,100034.21
2018-02-05T21:49:20.539Z,100033.64
2018-02-05T21:51:48.099Z,100030.58
2018-02-05T21:54:15.657Z,100022.23
2018-02-05T21:56:43.182Z,100026.53
2018-02-05T21:59:10.748Z,100018.62
2018-02-05T22:01:38.275Z,100020.56
2018-02-05T22:04:05.767Z,100022.83
2018-02-05T22:06:33.323Z,100024.00
2018-02-05T22:09:00.847Z,100028.14
2018-02-05T22:11:28.398Z,100024.78
2018-02-05T22:13:55.924Z,100022.17
2018-02-05T22:16:23.468Z,100025.61
2018-02-05T22:18:50.996Z,100018.62
2018-02-05T22:21:18.545Z,100021.66
2018-02-05T22:23:46.065Z,100020.47
2018-02-05T22:26:13.637Z,100010.11
2018-02-05T22:28:41.156Z,100006.37
2018-02-05T22:31:08.870Z,100001.35
2018-02-05T22:33:36.419Z,99992.31
2018-02-05T22:36:03.958Z,99995.20
2018-02-05T22:38:31.497Z,99999.73
2018-02-05T22:40:59.011Z,100004.45
2018-02-05T22:43:26.574Z,99995.94
2018-02-05T22:45:54.093Z,99990.30
2018-02-05T22:48:21.623Z,99989.47
2018-02-05T22:50:49.175Z,99986.75
2018-02-05T22:53:16.676Z,99982.89
2018-02-05T22:55:44.225Z,99977.41
2018-02-05T22:58:11.734Z,99963.32
2018-02-05T23:00:39.329Z,99959.95
2018-02-05T23:03:06.855Z,99952.30
2018-02-05T23:05:34.379Z,99943.30
2018-02-05T23:08:01.930Z,99948.84
2018-02-05T23:10:29.491Z,99947.67
2018-02-05T23:12:57.292Z,99940.91
2018-02-05T23:15:25.514Z,99937.88
2018-02-05T23:17:53.034Z,99927.10
2018-02-05T23:20:20.608Z,99924.50
2018-02-05T23:22:48.109Z,99916.11
2018-02-05T23:25:15.658Z,99914.52
2018-02-05T23:27:43.192Z,99915.44
2018-02-05T23:30:10.693Z,99912.84
2018-02-05T23:32:38.230Z,99897.19
2018-02-05T23:35:05.729Z,99894.64
2018-02-05T23:37:33.259Z,99900.38
2018-02-05T23:40:00.775Z,99892.78
2018-02-05T23:42:28.331Z,99899.03
2018-02-05T23:44:55.890Z,99893.89
2018-02-05T23:47:23.401Z,99883.97
2018-02-05T23:49:50.899Z,99877.57
2018-02-05T23:52:18.461Z,99879.25
2018-02-05T23:54:45.996Z,99877.05
2018-02-05T23:57:13.538Z,99879.06
2018-02-05T23:59:41.065Z,99871.17
